sensor_id;sensor_type;location;lat;lon;timestamp;P1;durP1;ratioP1;P2;durP2;ratioP2
67344;SDS011;54230;52.402;6.276;2023-04-03T00:00:00;5.3;;;1.8;;
67344;SDS011;54230;52.402;6.276;2023-04-03T00:05:00;4.6;;;1.8;;
67344;SDS011;54230;52.402;6.276;2023-04-03T00:10:00;3.9;;;1.8;;
67344;SDS011;54230;52.402;6.276;2023-04-03T00:15:00;5.0;;;1.9;;
67344;SDS011;54230;52.402;6.276;2023-04-03T00:20:00;4.0;;;1.8;;
67344;SDS011;54230;52.402;6.276;2023-04-03T00:25:00;4.8;;;1.8;;
67344;SDS011;54230;52.402;6.276;2023-04-03T00:30:00;5.9;;;2.3;;
67344;SDS011;54230;52.402;6.276;2023-04-03T00:35:00;5.6;;;2.5;;
67344;SDS011;54230;52.402;6.276;2023-04-03T00:40:00;5.2;;;2.1;;
67344;SDS011;54230;52.402;6.276;2023-04-03T00:50:00;5.9;;;2.2;;
67344;SDS011;54230;52.402;6.276;2023-04-03T00:55:03;6.0;;;2.0;;
67344;SDS011;54230;52.402;6.276;2023-04-03T01:00:02;4.6;;;2.0;;
67344;SDS011;54230;52.402;6.276;2023-04-03T01:05:00;7.8;;;2.4;;
67344;SDS011;54230;52.402;6.276;2023-04-03T01:10:01;6.4;;;2.4;;
67344;SDS011;54230;52.402;6.276;2023-04-03T01:15:01;6.1;;;2.4;;
67344;SDS011;54230;52.402;6.276;2023-04-03T01:20:11;5.7;;;2.3;;
67344;SDS011;54230;52.402;6.276;2023-04-03T01:25:00;6.8;;;2.4;;
67344;SDS011;54230;52.402;6.276;2023-04-03T01:30:00;8.4;;;2.6;;
67344;SDS011;54230;52.402;6.276;2023-04-03T01:35:00;6.4;;;2.3;;
67344;SDS011;54230;52.402;6.276;2023-04-03T01:40:00;7.6;;;2.4;;
67344;SDS011;54230;52.402;6.276;2023-04-03T01:45:00;6.4;;;2.5;;
67344;SDS011;54230;52.402;6.276;2023-04-03T01:50:00;5.5;;;2.4;;
67344;SDS011;54230;52.402;6.276;2023-04-03T01:55:00;7.4;;;3.0;;
67344;SDS011;54230;52.402;6.276;2023-04-03T02:00:00;6.5;;;3.3;;
67344;SDS011;54230;52.402;6.276;2023-04-03T02:05:00;7.1;;;4.0;;
67344;SDS011;54230;52.402;6.276;2023-04-03T02:10:00;7.8;;;3.9;;
67344;SDS011;54230;52.402;6.276;2023-04-03T02:15:00;8.0;;;4.4;;
67344;SDS011;54230;52.402;6.276;2023-04-03T02:20:00;7.9;;;4.5;;
67344;SDS011;54230;52.402;6.276;2023-04-03T02:25:00;8.3;;;3.7;;
67344;SDS011;54230;52.402;6.276;2023-04-03T02:30:00;7.4;;;4.6;;
67344;SDS011;54230;52.402;6.276;2023-04-03T02:35:00;8.9;;;6.2;;
67344;SDS011;54230;52.402;6.276;2023-04-03T02:40:00;11.5;;;7.8;;
67344;SDS011;54230;52.402;6.276;2023-04-03T02:45:00;12.5;;;6.8;;
67344;SDS011;54230;52.402;6.276;2023-04-03T02:50:00;9.6;;;6.3;;
67344;SDS011;54230;52.402;6.276;2023-04-03T02:55:00;10.1;;;6.4;;
67344;SDS011;54230;52.402;6.276;2023-04-03T03:00:00;11.4;;;7.6;;
67344;SDS011;54230;52.402;6.276;2023-04-03T03:05:00;10.1;;;8.0;;
67344;SDS011;54230;52.402;6.276;2023-04-03T03:10:00;11.6;;;9.9;;
67344;SDS011;54230;52.402;6.276;2023-04-03T03:15:00;11.1;;;9.4;;
67344;SDS011;54230;52.402;6.276;2023-04-03T03:20:00;12.6;;;10.8;;
67344;SDS011;54230;52.402;6.276;2023-04-03T03:25:00;13.9;;;12.0;;
67344;SDS011;54230;52.402;6.276;2023-04-03T03:30:00;15.1;;;13.6;;
67344;SDS011;54230;52.402;6.276;2023-04-03T03:35:00;15.0;;;13.4;;
67344;SDS011;54230;52.402;6.276;2023-04-03T03:40:00;15.8;;;14.2;;
67344;SDS011;54230;52.402;6.276;2023-04-03T03:45:00;17.8;;;16.1;;
67344;SDS011;54230;52.402;6.276;2023-04-03T03:50:00;16.6;;;15.0;;
67344;SDS011;54230;52.402;6.276;2023-04-03T03:55:00;18.7;;;16.2;;
67344;SDS011;54230;52.402;6.276;2023-04-03T04:00:00;17.8;;;16.1;;
67344;SDS011;54230;52.402;6.276;2023-04-03T04:05:00;18.9;;;17.2;;
67344;SDS011;54230;52.402;6.276;2023-04-03T04:10:00;19.9;;;17.7;;
67344;SDS011;54230;52.402;6.276;2023-04-03T04:15:00;18.6;;;16.6;;
67344;SDS011;54230;52.402;6.276;2023-04-03T04:20:00;21.9;;;19.6;;
67344;SDS011;54230;52.402;6.276;2023-04-03T04:25:00;19.1;;;17.0;;
67344;SDS011;54230;52.402;6.276;2023-04-03T04:30:00;20.7;;;18.6;;
67344;SDS011;54230;52.402;6.276;2023-04-03T04:35:00;18.2;;;16.4;;
67344;SDS011;54230;52.402;6.276;2023-04-03T04:40:00;19.7;;;17.8;;
67344;SDS011;54230;52.402;6.276;2023-04-03T04:45:00;18.9;;;17.0;;
67344;SDS011;54230;52.402;6.276;2023-04-03T04:50:00;18.9;;;17.0;;
67344;SDS011;54230;52.402;6.276;2023-04-03T04:55:00;20.4;;;18.4;;
67344;SDS011;54230;52.402;6.276;2023-04-03T05:00:00;20.2;;;18.1;;
67344;SDS011;54230;52.402;6.276;2023-04-03T05:05:00;19.6;;;17.6;;
67344;SDS011;54230;52.402;6.276;2023-04-03T05:10:00;21.6;;;19.5;;
67344;SDS011;54230;52.402;6.276;2023-04-03T05:15:00;20.5;;;18.5;;
67344;SDS011;54230;52.402;6.276;2023-04-03T05:20:00;21.5;;;17.8;;
67344;SDS011;54230;52.402;6.276;2023-04-03T05:25:00;21.1;;;19.0;;
67344;SDS011;54230;52.402;6.276;2023-04-03T05:30:00;24.9;;;19.1;;
67344;SDS011;54230;52.402;6.276;2023-04-03T05:35:00;21.8;;;18.4;;
67344;SDS011;54230;52.402;6.276;2023-04-03T05:40:00;20.9;;;18.7;;
67344;SDS011;54230;52.402;6.276;2023-04-03T05:45:00;18.9;;;16.9;;
67344;SDS011;54230;52.402;6.276;2023-04-03T05:50:00;20.8;;;18.6;;
67344;SDS011;54230;52.402;6.276;2023-04-03T05:55:00;20.9;;;18.8;;
67344;SDS011;54230;52.402;6.276;2023-04-03T06:00:00;20.5;;;18.5;;
67344;SDS011;54230;52.402;6.276;2023-04-03T06:05:00;20.2;;;18.3;;
67344;SDS011;54230;52.402;6.276;2023-04-03T06:10:00;23.6;;;18.1;;
67344;SDS011;54230;52.402;6.276;2023-04-03T06:15:00;20.4;;;18.3;;
67344;SDS011;54230;52.402;6.276;2023-04-03T06:20:00;19.5;;;17.6;;
67344;SDS011;54230;52.402;6.276;2023-04-03T06:25:00;21.1;;;17.6;;
67344;SDS011;54230;52.402;6.276;2023-04-03T06:30:00;19.6;;;17.8;;
67344;SDS011;54230;52.402;6.276;2023-04-03T06:35:00;19.2;;;17.2;;
67344;SDS011;54230;52.402;6.276;2023-04-03T06:40:00;16.8;;;15.1;;
67344;SDS011;54230;52.402;6.276;2023-04-03T06:45:00;18.5;;;16.7;;
67344;SDS011;54230;52.402;6.276;2023-04-03T06:50:00;19.4;;;17.3;;
67344;SDS011;54230;52.402;6.276;2023-04-03T06:55:00;18.1;;;16.4;;
67344;SDS011;54230;52.402;6.276;2023-04-03T07:00:00;17.5;;;15.8;;
67344;SDS011;54230;52.402;6.276;2023-04-03T07:05:00;17.5;;;15.8;;
67344;SDS011;54230;52.402;6.276;2023-04-03T07:10:00;16.1;;;14.4;;
67344;SDS011;54230;52.402;6.276;2023-04-03T07:15:00;16.4;;;14.8;;
67344;SDS011;54230;52.402;6.276;2023-04-03T07:20:00;19.0;;;12.1;;
67344;SDS011;54230;52.402;6.276;2023-04-03T07:25:00;11.6;;;9.1;;
67344;SDS011;54230;52.402;6.276;2023-04-03T07:30:00;10.4;;;7.0;;
67344;SDS011;54230;52.402;6.276;2023-04-03T07:35:00;8.7;;;5.6;;
67344;SDS011;54230;52.402;6.276;2023-04-03T07:40:00;8.3;;;3.0;;
67344;SDS011;54230;52.402;6.276;2023-04-03T07:45:00;8.4;;;2.4;;
67344;SDS011;54230;52.402;6.276;2023-04-03T07:50:00;7.0;;;2.3;;
67344;SDS011;54230;52.402;6.276;2023-04-03T07:55:00;6.3;;;1.8;;
67344;SDS011;54230;52.402;6.276;2023-04-03T08:00:00;7.4;;;2.0;;
67344;SDS011;54230;52.402;6.276;2023-04-03T08:05:00;5.6;;;1.8;;
67344;SDS011;54230;52.402;6.276;2023-04-03T08:10:00;4.4;;;1.6;;
67344;SDS011;54230;52.402;6.276;2023-04-03T08:15:00;5.9;;;1.9;;
67344;SDS011;54230;52.402;6.276;2023-04-03T08:20:00;4.9;;;1.8;;
67344;SDS011;54230;52.402;6.276;2023-04-03T08:25:00;6.5;;;1.9;;
67344;SDS011;54230;52.402;6.276;2023-04-03T08:30:00;4.8;;;1.7;;
67344;SDS011;54230;52.402;6.276;2023-04-03T08:35:00;4.9;;;1.5;;
67344;SDS011;54230;52.402;6.276;2023-04-03T08:40:00;5.0;;;1.6;;
67344;SDS011;54230;52.402;6.276;2023-04-03T08:45:01;3.5;;;1.4;;
67344;SDS011;54230;52.402;6.276;2023-04-03T08:50:02;4.2;;;1.5;;
67344;SDS011;54230;52.402;6.276;2023-04-03T08:55:00;3.8;;;1.3;;
67344;SDS011;54230;52.402;6.276;2023-04-03T09:00:01;4.6;;;1.3;;
67344;SDS011;54230;52.402;6.276;2023-04-03T09:05:01;3.8;;;1.2;;
67344;SDS011;54230;52.402;6.276;2023-04-03T09:10:00;2.7;;;1.3;;
67344;SDS011;54230;52.402;6.276;2023-04-03T09:15:02;2.8;;;1.1;;
67344;SDS011;54230;52.402;6.276;2023-04-03T09:20:02;4.1;;;1.2;;
67344;SDS011;54230;52.402;6.276;2023-04-03T09:25:02;3.7;;;1.2;;
67344;SDS011;54230;52.402;6.276;2023-04-03T09:30:00;2.5;;;1.1;;
67344;SDS011;54230;52.402;6.276;2023-04-03T09:35:01;2.7;;;1.2;;
67344;SDS011;54230;52.402;6.276;2023-04-03T09:40:00;4.1;;;1.2;;
67344;SDS011;54230;52.402;6.276;2023-04-03T09:45:01;4.0;;;1.3;;
67344;SDS011;54230;52.402;6.276;2023-04-03T09:50:09;2.6;;;1.1;;
67344;SDS011;54230;52.402;6.276;2023-04-03T09:55:05;2.2;;;1.0;;
67344;SDS011;54230;52.402;6.276;2023-04-03T10:00:01;2.5;;;1.1;;
67344;SDS011;54230;52.402;6.276;2023-04-03T10:05:00;2.6;;;1.0;;
67344;SDS011;54230;52.402;6.276;2023-04-03T10:10:02;2.8;;;1.3;;
67344;SDS011;54230;52.402;6.276;2023-04-03T10:15:00;2.5;;;1.2;;
67344;SDS011;54230;52.402;6.276;2023-04-03T10:20:02;2.9;;;1.0;;
67344;SDS011;54230;52.402;6.276;2023-04-03T10:25:02;3.2;;;1.3;;
67344;SDS011;54230;52.402;6.276;2023-04-03T10:30:02;2.5;;;1.1;;
67344;SDS011;54230;52.402;6.276;2023-04-03T10:35:02;3.1;;;1.3;;
67344;SDS011;54230;52.402;6.276;2023-04-03T10:40:02;3.2;;;1.2;;
67344;SDS011;54230;52.402;6.276;2023-04-03T10:45:03;3.5;;;1.1;;
67344;SDS011;54230;52.402;6.276;2023-04-03T10:50:02;3.5;;;1.3;;
67344;SDS011;54230;52.402;6.276;2023-04-03T10:55:02;3.2;;;1.3;;
67344;SDS011;54230;52.402;6.276;2023-04-03T11:00:01;3.6;;;1.4;;
67344;SDS011;54230;52.402;6.276;2023-04-03T11:05:01;2.9;;;1.1;;
67344;SDS011;54230;52.402;6.276;2023-04-03T11:10:02;3.2;;;1.3;;
67344;SDS011;54230;52.402;6.276;2023-04-03T11:15:00;2.2;;;1.3;;
67344;SDS011;54230;52.402;6.276;2023-04-03T11:20:02;2.7;;;1.4;;
67344;SDS011;54230;52.402;6.276;2023-04-03T11:25:02;3.8;;;1.3;;
67344;SDS011;54230;52.402;6.276;2023-04-03T11:30:00;3.0;;;1.2;;
67344;SDS011;54230;52.402;6.276;2023-04-03T11:35:00;3.0;;;1.3;;
67344;SDS011;54230;52.402;6.276;2023-04-03T11:40:01;4.5;;;1.5;;
67344;SDS011;54230;52.402;6.276;2023-04-03T11:50:00;3.2;;;1.3;;
67344;SDS011;54230;52.402;6.276;2023-04-03T11:55:00;2.9;;;1.3;;
67344;SDS011;54230;52.402;6.276;2023-04-03T12:00:00;3.6;;;1.7;;
67344;SDS011;54230;52.402;6.276;2023-04-03T12:10:00;3.4;;;1.6;;
67344;SDS011;54230;52.402;6.276;2023-04-03T12:20:00;3.2;;;1.5;;
67344;SDS011;54230;52.402;6.276;2023-04-03T12:25:00;4.1;;;1.6;;
67344;SDS011;54230;52.402;6.276;2023-04-03T12:30:04;4.6;;;1.5;;
67344;SDS011;54230;52.402;6.276;2023-04-03T12:35:05;7.6;;;1.3;;
67344;SDS011;54230;52.402;6.276;2023-04-03T12:40:04;3.4;;;1.3;;
67344;SDS011;54230;52.402;6.276;2023-04-03T12:45:01;3.2;;;1.4;;
67344;SDS011;54230;52.402;6.276;2023-04-03T12:50:00;3.7;;;1.6;;
67344;SDS011;54230;52.402;6.276;2023-04-03T12:55:01;3.6;;;1.6;;
67344;SDS011;54230;52.402;6.276;2023-04-03T13:00:00;6.2;;;1.6;;
67344;SDS011;54230;52.402;6.276;2023-04-03T13:05:05;4.1;;;1.7;;
67344;SDS011;54230;52.402;6.276;2023-04-03T13:10:02;5.2;;;1.6;;
67344;SDS011;54230;52.402;6.276;2023-04-03T13:15:01;3.2;;;1.3;;
67344;SDS011;54230;52.402;6.276;2023-04-03T13:25:03;4.4;;;1.4;;
67344;SDS011;54230;52.402;6.276;2023-04-03T13:30:00;4.4;;;1.4;;
67344;SDS011;54230;52.402;6.276;2023-04-03T13:35:00;5.2;;;1.4;;
67344;SDS011;54230;52.402;6.276;2023-04-03T13:40:02;3.6;;;1.6;;
67344;SDS011;54230;52.402;6.276;2023-04-03T13:50:02;3.7;;;1.5;;
67344;SDS011;54230;52.402;6.276;2023-04-03T13:55:01;4.3;;;1.6;;
67344;SDS011;54230;52.402;6.276;2023-04-03T14:05:00;3.8;;;1.5;;
67344;SDS011;54230;52.402;6.276;2023-04-03T14:10:00;3.5;;;1.5;;
67344;SDS011;54230;52.402;6.276;2023-04-03T14:15:00;4.7;;;1.7;;
67344;SDS011;54230;52.402;6.276;2023-04-03T14:20:00;4.3;;;1.7;;
67344;SDS011;54230;52.402;6.276;2023-04-03T14:25:00;3.3;;;1.5;;
67344;SDS011;54230;52.402;6.276;2023-04-03T14:30:00;4.5;;;1.6;;
67344;SDS011;54230;52.402;6.276;2023-04-03T14:35:00;6.5;;;1.7;;
67344;SDS011;54230;52.402;6.276;2023-04-03T14:40:01;4.2;;;1.6;;
67344;SDS011;54230;52.402;6.276;2023-04-03T14:45:01;4.3;;;1.6;;
67344;SDS011;54230;52.402;6.276;2023-04-03T14:50:00;6.8;;;1.7;;
67344;SDS011;54230;52.402;6.276;2023-04-03T14:55:01;4.0;;;1.6;;
67344;SDS011;54230;52.402;6.276;2023-04-03T15:00:00;4.7;;;1.8;;
67344;SDS011;54230;52.402;6.276;2023-04-03T15:05:00;5.0;;;1.7;;
67344;SDS011;54230;52.402;6.276;2023-04-03T15:10:01;3.5;;;1.7;;
67344;SDS011;54230;52.402;6.276;2023-04-03T15:15:00;3.3;;;1.8;;
67344;SDS011;54230;52.402;6.276;2023-04-03T15:20:00;3.3;;;1.6;;
67344;SDS011;54230;52.402;6.276;2023-04-03T15:25:00;3.6;;;1.5;;
67344;SDS011;54230;52.402;6.276;2023-04-03T15:30:00;4.1;;;1.7;;
67344;SDS011;54230;52.402;6.276;2023-04-03T15:35:00;4.4;;;1.5;;
67344;SDS011;54230;52.402;6.276;2023-04-03T15:40:00;4.8;;;1.6;;
67344;SDS011;54230;52.402;6.276;2023-04-03T15:45:00;4.8;;;1.7;;
67344;SDS011;54230;52.402;6.276;2023-04-03T15:50:00;3.6;;;1.6;;
67344;SDS011;54230;52.402;6.276;2023-04-03T15:55:00;3.3;;;1.6;;
67344;SDS011;54230;52.402;6.276;2023-04-03T16:00:00;3.4;;;1.7;;
67344;SDS011;54230;52.402;6.276;2023-04-03T16:05:00;3.1;;;1.6;;
67344;SDS011;54230;52.402;6.276;2023-04-03T16:10:00;3.7;;;1.8;;
67344;SDS011;54230;52.402;6.276;2023-04-03T16:15:00;4.4;;;1.8;;
67344;SDS011;54230;52.402;6.276;2023-04-03T16:20:00;3.6;;;1.7;;
67344;SDS011;54230;52.402;6.276;2023-04-03T16:25:00;3.7;;;1.6;;
67344;SDS011;54230;52.402;6.276;2023-04-03T16:30:00;3.1;;;1.5;;
67344;SDS011;54230;52.402;6.276;2023-04-03T16:35:00;3.6;;;2.0;;
67344;SDS011;54230;52.402;6.276;2023-04-03T16:40:00;4.1;;;1.8;;
67344;SDS011;54230;52.402;6.276;2023-04-03T16:45:00;3.5;;;1.9;;
67344;SDS011;54230;52.402;6.276;2023-04-03T16:50:00;3.5;;;1.8;;
67344;SDS011;54230;52.402;6.276;2023-04-03T16:55:00;4.3;;;1.6;;
67344;SDS011;54230;52.402;6.276;2023-04-03T17:00:00;4.1;;;1.7;;
67344;SDS011;54230;52.402;6.276;2023-04-03T17:05:00;4.6;;;1.7;;
67344;SDS011;54230;52.402;6.276;2023-04-03T17:10:00;5.5;;;1.8;;
67344;SDS011;54230;52.402;6.276;2023-04-03T17:15:00;4.7;;;1.6;;
67344;SDS011;54230;52.402;6.276;2023-04-03T17:20:00;4.7;;;1.7;;
67344;SDS011;54230;52.402;6.276;2023-04-03T17:25:00;4.1;;;1.6;;
67344;SDS011;54230;52.402;6.276;2023-04-03T17:30:00;3.5;;;1.8;;
67344;SDS011;54230;52.402;6.276;2023-04-03T17:35:00;4.1;;;1.8;;
67344;SDS011;54230;52.402;6.276;2023-04-03T17:40:00;4.1;;;1.9;;
67344;SDS011;54230;52.402;6.276;2023-04-03T17:45:00;6.3;;;2.0;;
67344;SDS011;54230;52.402;6.276;2023-04-03T17:50:00;4.8;;;1.8;;
67344;SDS011;54230;52.402;6.276;2023-04-03T17:55:00;4.5;;;1.8;;
67344;SDS011;54230;52.402;6.276;2023-04-03T18:00:00;4.1;;;1.8;;
67344;SDS011;54230;52.402;6.276;2023-04-03T18:05:00;6.0;;;2.1;;
67344;SDS011;54230;52.402;6.276;2023-04-03T18:10:00;4.3;;;1.8;;
67344;SDS011;54230;52.402;6.276;2023-04-03T18:15:00;4.2;;;1.8;;
67344;SDS011;54230;52.402;6.276;2023-04-03T18:20:00;4.4;;;2.0;;
67344;SDS011;54230;52.402;6.276;2023-04-03T18:25:00;5.8;;;2.3;;
67344;SDS011;54230;52.402;6.276;2023-04-03T18:30:04;5.7;;;2.3;;
67344;SDS011;54230;52.402;6.276;2023-04-03T18:35:00;4.9;;;2.2;;
67344;SDS011;54230;52.402;6.276;2023-04-03T18:40:00;4.0;;;2.0;;
67344;SDS011;54230;52.402;6.276;2023-04-03T18:45:01;7.1;;;2.0;;
67344;SDS011;54230;52.402;6.276;2023-04-03T18:50:00;4.8;;;1.9;;
67344;SDS011;54230;52.402;6.276;2023-04-03T18:55:00;4.3;;;1.9;;
67344;SDS011;54230;52.402;6.276;2023-04-03T19:00:00;5.0;;;2.2;;
67344;SDS011;54230;52.402;6.276;2023-04-03T19:05:00;5.6;;;2.3;;
67344;SDS011;54230;52.402;6.276;2023-04-03T19:10:00;5.2;;;2.2;;
67344;SDS011;54230;52.402;6.276;2023-04-03T19:15:00;5.3;;;2.1;;
67344;SDS011;54230;52.402;6.276;2023-04-03T19:20:00;4.6;;;2.1;;
67344;SDS011;54230;52.402;6.276;2023-04-03T19:25:00;4.5;;;2.2;;
67344;SDS011;54230;52.402;6.276;2023-04-03T19:30:00;5.2;;;2.4;;
67344;SDS011;54230;52.402;6.276;2023-04-03T19:35:00;5.2;;;2.5;;
67344;SDS011;54230;52.402;6.276;2023-04-03T19:40:00;4.7;;;2.2;;
67344;SDS011;54230;52.402;6.276;2023-04-03T19:45:00;5.4;;;2.3;;
67344;SDS011;54230;52.402;6.276;2023-04-03T19:50:00;5.3;;;2.0;;
67344;SDS011;54230;52.402;6.276;2023-04-03T19:55:00;6.3;;;2.5;;
67344;SDS011;54230;52.402;6.276;2023-04-03T20:00:00;5.5;;;2.7;;
67344;SDS011;54230;52.402;6.276;2023-04-03T20:05:00;5.7;;;2.7;;
67344;SDS011;54230;52.402;6.276;2023-04-03T20:10:00;6.9;;;2.8;;
67344;SDS011;54230;52.402;6.276;2023-04-03T20:15:00;6.6;;;3.0;;
67344;SDS011;54230;52.402;6.276;2023-04-03T20:20:00;7.8;;;2.9;;
67344;SDS011;54230;52.402;6.276;2023-04-03T20:25:00;6.9;;;2.5;;
67344;SDS011;54230;52.402;6.276;2023-04-03T20:30:00;6.9;;;2.8;;
67344;SDS011;54230;52.402;6.276;2023-04-03T20:35:00;6.2;;;2.6;;
67344;SDS011;54230;52.402;6.276;2023-04-03T20:40:00;6.9;;;2.9;;
67344;SDS011;54230;52.402;6.276;2023-04-03T20:45:00;5.8;;;2.8;;
67344;SDS011;54230;52.402;6.276;2023-04-03T20:50:00;6.8;;;3.0;;
67344;SDS011;54230;52.402;6.276;2023-04-03T20:55:00;6.2;;;3.0;;
67344;SDS011;54230;52.402;6.276;2023-04-03T21:00:00;6.6;;;3.0;;
67344;SDS011;54230;52.402;6.276;2023-04-03T21:05:00;6.7;;;3.0;;
67344;SDS011;54230;52.402;6.276;2023-04-03T21:20:00;5.8;;;2.7;;
67344;SDS011;54230;52.402;6.276;2023-04-03T21:25:00;6.5;;;2.9;;
67344;SDS011;54230;52.402;6.276;2023-04-03T21:30:00;5.1;;;2.9;;
67344;SDS011;54230;52.402;6.276;2023-04-03T21:35:00;7.5;;;2.8;;
67344;SDS011;54230;52.402;6.276;2023-04-03T21:40:00;6.6;;;3.1;;
67344;SDS011;54230;52.402;6.276;2023-04-03T21:45:00;6.6;;;2.9;;
67344;SDS011;54230;52.402;6.276;2023-04-03T21:50:00;6.3;;;3.1;;
67344;SDS011;54230;52.402;6.276;2023-04-03T21:55:00;6.2;;;2.8;;
67344;SDS011;54230;52.402;6.276;2023-04-03T22:00:00;5.7;;;2.6;;
67344;SDS011;54230;52.402;6.276;2023-04-03T22:05:00;8.0;;;3.1;;
67344;SDS011;54230;52.402;6.276;2023-04-03T22:10:00;6.8;;;2.9;;
67344;SDS011;54230;52.402;6.276;2023-04-03T22:15:00;6.8;;;3.1;;
67344;SDS011;54230;52.402;6.276;2023-04-03T22:20:00;4.7;;;2.6;;
67344;SDS011;54230;52.402;6.276;2023-04-03T22:25:00;6.7;;;2.9;;
67344;SDS011;54230;52.402;6.276;2023-04-03T22:30:00;5.7;;;3.1;;
67344;SDS011;54230;52.402;6.276;2023-04-03T22:35:00;6.9;;;2.9;;
67344;SDS011;54230;52.402;6.276;2023-04-03T22:40:00;7.2;;;3.1;;
67344;SDS011;54230;52.402;6.276;2023-04-03T22:45:00;8.3;;;3.3;;
67344;SDS011;54230;52.402;6.276;2023-04-03T22:50:00;6.0;;;3.0;;
67344;SDS011;54230;52.402;6.276;2023-04-03T22:55:00;7.0;;;3.1;;
67344;SDS011;54230;52.402;6.276;2023-04-03T23:00:00;5.6;;;3.1;;
67344;SDS011;54230;52.402;6.276;2023-04-03T23:05:00;6.4;;;3.1;;
67344;SDS011;54230;52.402;6.276;2023-04-03T23:10:00;6.0;;;3.0;;
67344;SDS011;54230;52.402;6.276;2023-04-03T23:15:00;7.8;;;3.0;;
67344;SDS011;54230;52.402;6.276;2023-04-03T23:20:00;6.4;;;3.1;;
67344;SDS011;54230;52.402;6.276;2023-04-03T23:25:00;6.6;;;2.7;;
67344;SDS011;54230;52.402;6.276;2023-04-03T23:30:00;7.2;;;3.3;;
67344;SDS011;54230;52.402;6.276;2023-04-03T23:35:00;8.4;;;3.5;;
67344;SDS011;54230;52.402;6.276;2023-04-03T23:40:00;7.8;;;3.5;;
67344;SDS011;54230;52.402;6.276;2023-04-03T23:45:00;7.0;;;3.2;;
67344;SDS011;54230;52.402;6.276;2023-04-03T23:50:00;6.9;;;3.3;;
67344;SDS011;54230;52.402;6.276;2023-04-03T23:55:00;10.7;;;3.8;;
